sensor_id;sensor_type;location;lat;lon;timestamp;P1;durP1;ratioP1;P2;durP2;ratioP2
18983;SDS011;9626;52.552;13.436;2023-11-21T00:00:13;15.97;;;10.60;;
18983;SDS011;9626;52.552;13.436;2023-11-21T00:02:40;16.20;;;9.67;;
18983;SDS011;9626;52.552;13.436;2023-11-21T00:05:08;15.93;;;10.40;;
18983;SDS011;9626;52.552;13.436;2023-11-21T00:07:36;15.00;;;10.13;;
18983;SDS011;9626;52.552;13.436;2023-11-21T00:10:02;17.53;;;11.77;;
18983;SDS011;9626;52.552;13.436;2023-11-21T00:12:31;15.13;;;10.23;;
18983;SDS011;9626;52.552;13.436;2023-11-21T00:14:57;17.07;;;11.63;;
18983;SDS011;9626;52.552;13.436;2023-11-21T00:17:23;18.60;;;11.87;;
18983;SDS011;9626;52.552;13.436;2023-11-21T00:19:50;16.93;;;11.27;;
18983;SDS011;9626;52.552;13.436;2023-11-21T00:22:18;17.87;;;11.67;;
18983;SDS011;9626;52.552;13.436;2023-11-21T00:24:44;19.07;;;12.00;;
18983;SDS011;9626;52.552;13.436;2023-11-21T00:27:10;20.33;;;12.10;;
18983;SDS011;9626;52.552;13.436;2023-11-21T00:29:37;18.57;;;12.10;;
18983;SDS011;9626;52.552;13.436;2023-11-21T00:32:04;20.63;;;12.07;;
18983;SDS011;9626;52.552;13.436;2023-11-21T00:34:31;22.07;;;13.07;;
18983;SDS011;9626;52.552;13.436;2023-11-21T00:36:58;22.50;;;13.00;;
18983;SDS011;9626;52.552;13.436;2023-11-21T00:39:24;22.63;;;13.40;;
18983;SDS011;9626;52.552;13.436;2023-11-21T00:41:52;23.03;;;13.63;;
18983;SDS011;9626;52.552;13.436;2023-11-21T00:44:18;24.73;;;14.33;;
18983;SDS011;9626;52.552;13.436;2023-11-21T00:46:44;26.97;;;15.40;;
18983;SDS011;9626;52.552;13.436;2023-11-21T00:49:10;26.30;;;15.00;;
18983;SDS011;9626;52.552;13.436;2023-11-21T00:51:36;27.70;;;14.90;;
18983;SDS011;9626;52.552;13.436;2023-11-21T00:54:02;27.43;;;15.03;;
18983;SDS011;9626;52.552;13.436;2023-11-21T00:56:29;27.27;;;15.67;;
18983;SDS011;9626;52.552;13.436;2023-11-21T00:58:55;31.20;;;16.80;;
18983;SDS011;9626;52.552;13.436;2023-11-21T01:01:21;31.93;;;17.53;;
18983;SDS011;9626;52.552;13.436;2023-11-21T01:03:48;33.87;;;18.43;;
18983;SDS011;9626;52.552;13.436;2023-11-21T01:06:15;41.30;;;19.43;;
18983;SDS011;9626;52.552;13.436;2023-11-21T01:08:41;42.23;;;20.47;;
18983;SDS011;9626;52.552;13.436;2023-11-21T01:11:07;44.60;;;21.80;;
18983;SDS011;9626;52.552;13.436;2023-11-21T01:13:34;44.83;;;22.13;;
18983;SDS011;9626;52.552;13.436;2023-11-21T01:16:01;46.07;;;22.10;;
18983;SDS011;9626;52.552;13.436;2023-11-21T01:18:27;41.57;;;22.27;;
18983;SDS011;9626;52.552;13.436;2023-11-21T01:20:55;48.33;;;24.03;;
18983;SDS011;9626;52.552;13.436;2023-11-21T01:23:21;46.63;;;22.10;;
18983;SDS011;9626;52.552;13.436;2023-11-21T01:25:47;45.73;;;22.10;;
18983;SDS011;9626;52.552;13.436;2023-11-21T01:28:22;54.77;;;24.27;;
18983;SDS011;9626;52.552;13.436;2023-11-21T01:30:53;49.23;;;22.20;;
18983;SDS011;9626;52.552;13.436;2023-11-21T01:33:22;42.33;;;20.23;;
18983;SDS011;9626;52.552;13.436;2023-11-21T01:35:50;36.43;;;18.07;;
18983;SDS011;9626;52.552;13.436;2023-11-21T01:38:18;39.13;;;17.87;;
18983;SDS011;9626;52.552;13.436;2023-11-21T01:40:53;32.27;;;15.40;;
18983;SDS011;9626;52.552;13.436;2023-11-21T01:43:19;33.37;;;16.57;;
18983;SDS011;9626;52.552;13.436;2023-11-21T01:45:45;35.43;;;15.57;;
18983;SDS011;9626;52.552;13.436;2023-11-21T01:48:11;38.40;;;15.97;;
18983;SDS011;9626;52.552;13.436;2023-11-21T01:50:39;36.83;;;16.50;;
18983;SDS011;9626;52.552;13.436;2023-11-21T01:53:05;37.70;;;15.00;;
18983;SDS011;9626;52.552;13.436;2023-11-21T01:55:32;34.67;;;15.23;;
18983;SDS011;9626;52.552;13.436;2023-11-21T01:57:59;26.77;;;13.60;;
18983;SDS011;9626;52.552;13.436;2023-11-21T02:00:25;27.87;;;12.83;;
18983;SDS011;9626;52.552;13.436;2023-11-21T02:02:53;27.27;;;12.03;;
18983;SDS011;9626;52.552;13.436;2023-11-21T02:05:19;26.17;;;12.43;;
18983;SDS011;9626;52.552;13.436;2023-11-21T02:07:47;21.03;;;10.43;;
18983;SDS011;9626;52.552;13.436;2023-11-21T02:10:14;20.03;;;10.33;;
18983;SDS011;9626;52.552;13.436;2023-11-21T02:12:41;19.90;;;10.33;;
18983;SDS011;9626;52.552;13.436;2023-11-21T02:15:08;18.73;;;10.57;;
18983;SDS011;9626;52.552;13.436;2023-11-21T02:17:41;20.93;;;9.40;;
18983;SDS011;9626;52.552;13.436;2023-11-21T02:20:12;16.33;;;9.37;;
18983;SDS011;9626;52.552;13.436;2023-11-21T02:22:41;16.30;;;8.43;;
18983;SDS011;9626;52.552;13.436;2023-11-21T02:25:08;18.00;;;9.27;;
18983;SDS011;9626;52.552;13.436;2023-11-21T02:27:34;15.67;;;8.67;;
18983;SDS011;9626;52.552;13.436;2023-11-21T02:30:00;16.50;;;8.70;;
18983;SDS011;9626;52.552;13.436;2023-11-21T02:32:27;13.80;;;8.10;;
18983;SDS011;9626;52.552;13.436;2023-11-21T02:34:53;14.00;;;7.63;;
18983;SDS011;9626;52.552;13.436;2023-11-21T02:37:26;19.80;;;7.97;;
18983;SDS011;9626;52.552;13.436;2023-11-21T02:39:52;12.43;;;8.10;;
18983;SDS011;9626;52.552;13.436;2023-11-21T02:42:18;15.67;;;8.67;;
18983;SDS011;9626;52.552;13.436;2023-11-21T02:44:44;15.97;;;9.47;;
18983;SDS011;9626;52.552;13.436;2023-11-21T02:47:10;11.13;;;7.50;;
18983;SDS011;9626;52.552;13.436;2023-11-21T02:49:36;13.63;;;7.70;;
18983;SDS011;9626;52.552;13.436;2023-11-21T02:52:03;14.70;;;7.90;;
18983;SDS011;9626;52.552;13.436;2023-11-21T02:54:29;11.97;;;8.33;;
18983;SDS011;9626;52.552;13.436;2023-11-21T02:56:55;12.70;;;8.27;;
18983;SDS011;9626;52.552;13.436;2023-11-21T02:59:21;12.53;;;9.17;;
18983;SDS011;9626;52.552;13.436;2023-11-21T03:01:50;13.53;;;8.43;;
18983;SDS011;9626;52.552;13.436;2023-11-21T03:04:16;12.30;;;9.20;;
18983;SDS011;9626;52.552;13.436;2023-11-21T03:06:44;12.30;;;8.73;;
18983;SDS011;9626;52.552;13.436;2023-11-21T03:09:10;10.30;;;8.20;;
18983;SDS011;9626;52.552;13.436;2023-11-21T03:11:39;11.10;;;8.50;;
18983;SDS011;9626;52.552;13.436;2023-11-21T03:14:05;12.17;;;8.47;;
18983;SDS011;9626;52.552;13.436;2023-11-21T03:16:32;12.87;;;8.20;;
18983;SDS011;9626;52.552;13.436;2023-11-21T03:18:58;10.17;;;8.00;;
18983;SDS011;9626;52.552;13.436;2023-11-21T03:21:27;11.03;;;7.27;;
18983;SDS011;9626;52.552;13.436;2023-11-21T03:23:53;9.53;;;7.03;;
18983;SDS011;9626;52.552;13.436;2023-11-21T03:26:19;10.00;;;7.17;;
18983;SDS011;9626;52.552;13.436;2023-11-21T03:28:45;10.77;;;7.37;;
18983;SDS011;9626;52.552;13.436;2023-11-21T03:31:17;9.60;;;6.93;;
18983;SDS011;9626;52.552;13.436;2023-11-21T03:33:44;9.13;;;6.37;;
18983;SDS011;9626;52.552;13.436;2023-11-21T03:36:20;8.80;;;6.57;;
18983;SDS011;9626;52.552;13.436;2023-11-21T03:38:47;9.57;;;6.60;;
18983;SDS011;9626;52.552;13.436;2023-11-21T03:41:14;10.80;;;7.97;;
18983;SDS011;9626;52.552;13.436;2023-11-21T03:43:40;9.60;;;7.13;;
18983;SDS011;9626;52.552;13.436;2023-11-21T03:46:06;15.10;;;7.10;;
18983;SDS011;9626;52.552;13.436;2023-11-21T03:48:33;9.43;;;7.30;;
18983;SDS011;9626;52.552;13.436;2023-11-21T03:51:00;11.87;;;7.30;;
18983;SDS011;9626;52.552;13.436;2023-11-21T03:53:26;9.37;;;7.10;;
18983;SDS011;9626;52.552;13.436;2023-11-21T03:55:52;10.30;;;7.30;;
18983;SDS011;9626;52.552;13.436;2023-11-21T03:58:18;9.57;;;7.70;;
18983;SDS011;9626;52.552;13.436;2023-11-21T04:00:44;10.10;;;7.43;;
18983;SDS011;9626;52.552;13.436;2023-11-21T04:03:11;8.67;;;6.80;;
18983;SDS011;9626;52.552;13.436;2023-11-21T04:05:38;9.20;;;6.83;;
18983;SDS011;9626;52.552;13.436;2023-11-21T04:08:04;8.20;;;6.13;;
18983;SDS011;9626;52.552;13.436;2023-11-21T04:10:30;7.67;;;6.83;;
18983;SDS011;9626;52.552;13.436;2023-11-21T04:12:56;9.70;;;6.70;;
18983;SDS011;9626;52.552;13.436;2023-11-21T04:15:22;9.13;;;6.80;;
18983;SDS011;9626;52.552;13.436;2023-11-21T04:17:48;8.00;;;6.77;;
18983;SDS011;9626;52.552;13.436;2023-11-21T04:20:14;8.63;;;6.43;;
18983;SDS011;9626;52.552;13.436;2023-11-21T04:22:41;8.47;;;7.07;;
18983;SDS011;9626;52.552;13.436;2023-11-21T04:25:10;8.57;;;6.53;;
18983;SDS011;9626;52.552;13.436;2023-11-21T04:27:38;8.67;;;6.50;;
18983;SDS011;9626;52.552;13.436;2023-11-21T04:30:05;9.10;;;7.07;;
18983;SDS011;9626;52.552;13.436;2023-11-21T04:32:33;8.23;;;6.40;;
18983;SDS011;9626;52.552;13.436;2023-11-21T04:34:59;11.93;;;7.93;;
18983;SDS011;9626;52.552;13.436;2023-11-21T04:37:25;9.40;;;6.97;;
18983;SDS011;9626;52.552;13.436;2023-11-21T04:39:51;8.37;;;6.20;;
18983;SDS011;9626;52.552;13.436;2023-11-21T04:42:17;8.47;;;6.23;;
18983;SDS011;9626;52.552;13.436;2023-11-21T04:44:43;7.47;;;6.03;;
18983;SDS011;9626;52.552;13.436;2023-11-21T04:47:10;7.67;;;5.70;;
18983;SDS011;9626;52.552;13.436;2023-11-21T04:49:36;9.33;;;6.30;;
18983;SDS011;9626;52.552;13.436;2023-11-21T04:52:02;7.80;;;6.20;;
18983;SDS011;9626;52.552;13.436;2023-11-21T04:54:30;8.93;;;6.37;;
18983;SDS011;9626;52.552;13.436;2023-11-21T04:56:56;7.43;;;5.60;;
18983;SDS011;9626;52.552;13.436;2023-11-21T04:59:22;9.33;;;6.23;;
18983;SDS011;9626;52.552;13.436;2023-11-21T05:01:53;8.63;;;5.90;;
18983;SDS011;9626;52.552;13.436;2023-11-21T05:04:20;6.83;;;5.30;;
18983;SDS011;9626;52.552;13.436;2023-11-21T05:06:48;7.77;;;5.80;;
18983;SDS011;9626;52.552;13.436;2023-11-21T05:09:14;7.60;;;5.43;;
18983;SDS011;9626;52.552;13.436;2023-11-21T05:11:41;6.60;;;5.27;;
18983;SDS011;9626;52.552;13.436;2023-11-21T05:14:07;8.20;;;5.43;;
18983;SDS011;9626;52.552;13.436;2023-11-21T05:16:34;8.03;;;5.37;;
18983;SDS011;9626;52.552;13.436;2023-11-21T05:19:01;6.97;;;5.37;;
18983;SDS011;9626;52.552;13.436;2023-11-21T05:21:27;7.00;;;5.63;;
18983;SDS011;9626;52.552;13.436;2023-11-21T05:23:53;6.40;;;5.13;;
18983;SDS011;9626;52.552;13.436;2023-11-21T05:26:19;9.13;;;5.83;;
18983;SDS011;9626;52.552;13.436;2023-11-21T05:28:46;8.63;;;5.67;;
18983;SDS011;9626;52.552;13.436;2023-11-21T05:31:12;10.67;;;5.53;;
18983;SDS011;9626;52.552;13.436;2023-11-21T05:33:38;8.80;;;6.27;;
18983;SDS011;9626;52.552;13.436;2023-11-21T05:36:04;8.90;;;6.23;;
18983;SDS011;9626;52.552;13.436;2023-11-21T05:38:33;8.23;;;6.10;;
18983;SDS011;9626;52.552;13.436;2023-11-21T05:41:01;8.43;;;6.37;;
18983;SDS011;9626;52.552;13.436;2023-11-21T05:43:27;8.40;;;6.43;;
18983;SDS011;9626;52.552;13.436;2023-11-21T05:45:55;8.77;;;6.43;;
18983;SDS011;9626;52.552;13.436;2023-11-21T05:48:21;7.73;;;6.10;;
18983;SDS011;9626;52.552;13.436;2023-11-21T05:50:50;9.20;;;6.47;;
18983;SDS011;9626;52.552;13.436;2023-11-21T05:53:16;9.47;;;6.50;;
18983;SDS011;9626;52.552;13.436;2023-11-21T05:55:42;9.23;;;6.47;;
18983;SDS011;9626;52.552;13.436;2023-11-21T05:58:23;8.80;;;6.67;;
18983;SDS011;9626;52.552;13.436;2023-11-21T06:00:52;11.07;;;7.03;;
18983;SDS011;9626;52.552;13.436;2023-11-21T06:03:18;9.17;;;6.30;;
18983;SDS011;9626;52.552;13.436;2023-11-21T06:06:03;7.40;;;5.50;;
18983;SDS011;9626;52.552;13.436;2023-11-21T06:08:30;8.83;;;5.90;;
18983;SDS011;9626;52.552;13.436;2023-11-21T06:10:56;7.07;;;5.57;;
18983;SDS011;9626;52.552;13.436;2023-11-21T06:13:22;7.37;;;5.27;;
18983;SDS011;9626;52.552;13.436;2023-11-21T06:15:50;7.13;;;5.50;;
18983;SDS011;9626;52.552;13.436;2023-11-21T06:18:17;7.03;;;5.33;;
18983;SDS011;9626;52.552;13.436;2023-11-21T06:20:45;8.13;;;5.60;;
18983;SDS011;9626;52.552;13.436;2023-11-21T06:23:30;6.60;;;4.77;;
18983;SDS011;9626;52.552;13.436;2023-11-21T06:25:56;7.80;;;5.47;;
18983;SDS011;9626;52.552;13.436;2023-11-21T06:28:23;7.10;;;4.60;;
18983;SDS011;9626;52.552;13.436;2023-11-21T06:30:49;6.50;;;5.03;;
18983;SDS011;9626;52.552;13.436;2023-11-21T06:33:16;6.80;;;4.93;;
18983;SDS011;9626;52.552;13.436;2023-11-21T06:35:42;7.00;;;4.80;;
18983;SDS011;9626;52.552;13.436;2023-11-21T06:38:08;6.30;;;5.37;;
18983;SDS011;9626;52.552;13.436;2023-11-21T06:40:34;6.90;;;5.27;;
18983;SDS011;9626;52.552;13.436;2023-11-21T06:43:02;7.13;;;5.20;;
18983;SDS011;9626;52.552;13.436;2023-11-21T06:45:28;6.13;;;4.60;;
18983;SDS011;9626;52.552;13.436;2023-11-21T06:47:55;6.00;;;4.60;;
18983;SDS011;9626;52.552;13.436;2023-11-21T06:50:21;6.60;;;4.40;;
18983;SDS011;9626;52.552;13.436;2023-11-21T06:52:47;6.47;;;4.97;;
18983;SDS011;9626;52.552;13.436;2023-11-21T06:55:14;6.50;;;4.83;;
18983;SDS011;9626;52.552;13.436;2023-11-21T06:57:43;6.17;;;4.63;;
18983;SDS011;9626;52.552;13.436;2023-11-21T07:00:10;5.37;;;3.93;;
18983;SDS011;9626;52.552;13.436;2023-11-21T07:02:37;6.70;;;5.03;;
18983;SDS011;9626;52.552;13.436;2023-11-21T07:05:03;6.13;;;4.87;;
18983;SDS011;9626;52.552;13.436;2023-11-21T07:07:30;5.77;;;4.30;;
18983;SDS011;9626;52.552;13.436;2023-11-21T07:09:56;7.30;;;4.77;;
18983;SDS011;9626;52.552;13.436;2023-11-21T07:12:22;5.80;;;4.60;;
18983;SDS011;9626;52.552;13.436;2023-11-21T07:14:51;10.90;;;5.30;;
18983;SDS011;9626;52.552;13.436;2023-11-21T07:17:17;5.87;;;4.40;;
18983;SDS011;9626;52.552;13.436;2023-11-21T07:19:43;7.10;;;4.97;;
18983;SDS011;9626;52.552;13.436;2023-11-21T07:22:10;5.40;;;4.13;;
18983;SDS011;9626;52.552;13.436;2023-11-21T07:24:36;4.70;;;4.00;;
18983;SDS011;9626;52.552;13.436;2023-11-21T07:27:05;5.37;;;4.00;;
18983;SDS011;9626;52.552;13.436;2023-11-21T07:29:31;6.53;;;4.50;;
18983;SDS011;9626;52.552;13.436;2023-11-21T07:31:59;7.57;;;4.97;;
18983;SDS011;9626;52.552;13.436;2023-11-21T07:34:26;7.07;;;4.57;;
18983;SDS011;9626;52.552;13.436;2023-11-21T07:36:52;6.97;;;4.57;;
18983;SDS011;9626;52.552;13.436;2023-11-21T07:39:18;6.43;;;4.00;;
18983;SDS011;9626;52.552;13.436;2023-11-21T07:41:47;4.77;;;3.93;;
18983;SDS011;9626;52.552;13.436;2023-11-21T07:44:14;5.40;;;4.30;;
18983;SDS011;9626;52.552;13.436;2023-11-21T07:46:43;8.30;;;4.40;;
18983;SDS011;9626;52.552;13.436;2023-11-21T07:49:10;8.43;;;4.20;;
18983;SDS011;9626;52.552;13.436;2023-11-21T07:51:36;6.47;;;4.40;;
18983;SDS011;9626;52.552;13.436;2023-11-21T07:54:02;5.60;;;3.77;;
18983;SDS011;9626;52.552;13.436;2023-11-21T07:56:28;5.57;;;3.97;;
18983;SDS011;9626;52.552;13.436;2023-11-21T07:58:55;5.57;;;3.77;;
18983;SDS011;9626;52.552;13.436;2023-11-21T08:01:21;6.47;;;3.83;;
18983;SDS011;9626;52.552;13.436;2023-11-21T08:03:47;6.80;;;3.97;;
18983;SDS011;9626;52.552;13.436;2023-11-21T08:06:17;6.17;;;3.80;;
18983;SDS011;9626;52.552;13.436;2023-11-21T08:08:44;5.83;;;4.00;;
18983;SDS011;9626;52.552;13.436;2023-11-21T08:11:10;5.67;;;3.80;;
18983;SDS011;9626;52.552;13.436;2023-11-21T08:13:39;8.03;;;4.47;;
18983;SDS011;9626;52.552;13.436;2023-11-21T08:16:05;4.47;;;3.80;;
18983;SDS011;9626;52.552;13.436;2023-11-21T08:18:33;7.67;;;4.70;;
18983;SDS011;9626;52.552;13.436;2023-11-21T08:20:59;6.00;;;4.10;;
18983;SDS011;9626;52.552;13.436;2023-11-21T08:23:26;7.13;;;4.33;;
18983;SDS011;9626;52.552;13.436;2023-11-21T08:25:52;6.97;;;4.20;;
18983;SDS011;9626;52.552;13.436;2023-11-21T08:28:19;9.63;;;4.60;;
18983;SDS011;9626;52.552;13.436;2023-11-21T08:30:45;7.37;;;4.57;;
18983;SDS011;9626;52.552;13.436;2023-11-21T08:33:11;6.47;;;4.33;;
18983;SDS011;9626;52.552;13.436;2023-11-21T08:35:37;5.97;;;4.53;;
18983;SDS011;9626;52.552;13.436;2023-11-21T08:38:03;8.60;;;4.43;;
18983;SDS011;9626;52.552;13.436;2023-11-21T08:40:30;7.27;;;4.67;;
18983;SDS011;9626;52.552;13.436;2023-11-21T08:42:57;8.37;;;4.73;;
18983;SDS011;9626;52.552;13.436;2023-11-21T08:45:24;9.00;;;5.50;;
18983;SDS011;9626;52.552;13.436;2023-11-21T08:47:51;8.43;;;5.10;;
18983;SDS011;9626;52.552;13.436;2023-11-21T08:50:18;11.73;;;6.13;;
18983;SDS011;9626;52.552;13.436;2023-11-21T08:52:45;11.70;;;5.40;;
18983;SDS011;9626;52.552;13.436;2023-11-21T08:55:12;9.07;;;5.60;;
18983;SDS011;9626;52.552;13.436;2023-11-21T08:57:39;11.00;;;5.57;;
18983;SDS011;9626;52.552;13.436;2023-11-21T09:00:17;11.53;;;5.77;;
18983;SDS011;9626;52.552;13.436;2023-11-21T09:02:45;11.10;;;5.30;;
18983;SDS011;9626;52.552;13.436;2023-11-21T09:05:11;8.57;;;5.23;;
18983;SDS011;9626;52.552;13.436;2023-11-21T09:07:40;14.27;;;5.63;;
18983;SDS011;9626;52.552;13.436;2023-11-21T09:10:07;9.37;;;5.33;;
18983;SDS011;9626;52.552;13.436;2023-11-21T09:12:35;12.77;;;6.40;;
18983;SDS011;9626;52.552;13.436;2023-11-21T09:15:03;11.90;;;5.77;;
18983;SDS011;9626;52.552;13.436;2023-11-21T09:17:49;13.83;;;5.87;;
18983;SDS011;9626;52.552;13.436;2023-11-21T09:20:15;13.27;;;6.93;;
18983;SDS011;9626;52.552;13.436;2023-11-21T09:22:41;16.07;;;6.50;;
18983;SDS011;9626;52.552;13.436;2023-11-21T09:25:07;12.27;;;6.77;;
18983;SDS011;9626;52.552;13.436;2023-11-21T09:27:36;13.53;;;7.03;;
18983;SDS011;9626;52.552;13.436;2023-11-21T09:30:05;15.40;;;6.90;;
18983;SDS011;9626;52.552;13.436;2023-11-21T09:32:35;11.83;;;6.17;;
18983;SDS011;9626;52.552;13.436;2023-11-21T09:35:04;10.63;;;6.27;;
18983;SDS011;9626;52.552;13.436;2023-11-21T09:37:31;15.53;;;6.00;;
18983;SDS011;9626;52.552;13.436;2023-11-21T09:39:57;11.17;;;5.77;;
18983;SDS011;9626;52.552;13.436;2023-11-21T09:42:25;9.43;;;5.40;;
18983;SDS011;9626;52.552;13.436;2023-11-21T09:45:15;15.23;;;4.70;;
18983;SDS011;9626;52.552;13.436;2023-11-21T09:47:43;9.83;;;4.57;;
18983;SDS011;9626;52.552;13.436;2023-11-21T09:50:10;10.07;;;4.40;;
18983;SDS011;9626;52.552;13.436;2023-11-21T09:52:39;7.13;;;3.90;;
18983;SDS011;9626;52.552;13.436;2023-11-21T09:55:26;4.57;;;2.67;;
18983;SDS011;9626;52.552;13.436;2023-11-21T09:57:56;6.23;;;3.97;;
18983;SDS011;9626;52.552;13.436;2023-11-21T10:00:22;7.43;;;3.07;;
18983;SDS011;9626;52.552;13.436;2023-11-21T10:02:53;4.57;;;3.00;;
18983;SDS011;9626;52.552;13.436;2023-11-21T10:05:38;3.50;;;2.57;;
18983;SDS011;9626;52.552;13.436;2023-11-21T10:08:24;4.50;;;3.10;;
18983;SDS011;9626;52.552;13.436;2023-11-21T10:10:53;4.67;;;2.77;;
18983;SDS011;9626;52.552;13.436;2023-11-21T10:13:21;5.40;;;3.10;;
18983;SDS011;9626;52.552;13.436;2023-11-21T10:15:49;5.20;;;3.17;;
18983;SDS011;9626;52.552;13.436;2023-11-21T10:18:17;6.10;;;3.20;;
18983;SDS011;9626;52.552;13.436;2023-11-21T10:20:44;4.53;;;3.37;;
18983;SDS011;9626;52.552;13.436;2023-11-21T10:23:20;4.13;;;2.90;;
18983;SDS011;9626;52.552;13.436;2023-11-21T10:25:47;4.77;;;3.37;;
18983;SDS011;9626;52.552;13.436;2023-11-21T10:28:36;7.07;;;3.43;;
18983;SDS011;9626;52.552;13.436;2023-11-21T10:31:06;4.33;;;2.83;;
18983;SDS011;9626;52.552;13.436;2023-11-21T10:33:34;5.40;;;3.10;;
18983;SDS011;9626;52.552;13.436;2023-11-21T10:36:01;5.70;;;3.30;;
18983;SDS011;9626;52.552;13.436;2023-11-21T10:38:28;3.27;;;2.60;;
18983;SDS011;9626;52.552;13.436;2023-11-21T10:40:55;4.30;;;2.47;;
18983;SDS011;9626;52.552;13.436;2023-11-21T10:43:24;4.07;;;2.53;;
18983;SDS011;9626;52.552;13.436;2023-11-21T10:45:51;8.00;;;3.17;;
18983;SDS011;9626;52.552;13.436;2023-11-21T10:48:17;5.27;;;2.97;;
18983;SDS011;9626;52.552;13.436;2023-11-21T10:50:43;4.63;;;2.77;;
18983;SDS011;9626;52.552;13.436;2023-11-21T10:53:11;3.30;;;2.67;;
18983;SDS011;9626;52.552;13.436;2023-11-21T10:55:38;2.90;;;2.27;;
18983;SDS011;9626;52.552;13.436;2023-11-21T10:58:07;3.77;;;2.50;;
18983;SDS011;9626;52.552;13.436;2023-11-21T11:00:36;6.10;;;3.10;;
18983;SDS011;9626;52.552;13.436;2023-11-21T11:03:05;4.53;;;2.90;;
18983;SDS011;9626;52.552;13.436;2023-11-21T11:05:39;4.77;;;2.87;;
18983;SDS011;9626;52.552;13.436;2023-11-21T11:08:08;9.63;;;2.97;;
18983;SDS011;9626;52.552;13.436;2023-11-21T11:10:38;6.93;;;3.07;;
18983;SDS011;9626;52.552;13.436;2023-11-21T11:13:04;5.70;;;3.23;;
18983;SDS011;9626;52.552;13.436;2023-11-21T11:15:32;4.83;;;3.33;;
18983;SDS011;9626;52.552;13.436;2023-11-21T11:17:59;4.43;;;2.90;;
18983;SDS011;9626;52.552;13.436;2023-11-21T11:20:28;2.93;;;2.30;;
18983;SDS011;9626;52.552;13.436;2023-11-21T11:28:17;6.90;;;2.93;;
18983;SDS011;9626;52.552;13.436;2023-11-21T11:34:33;4.33;;;3.03;;
18983;SDS011;9626;52.552;13.436;2023-11-21T11:36:37;3.60;;;3.17;;
18983;SDS011;9626;52.552;13.436;2023-11-21T11:39:42;3.27;;;2.80;;
18983;SDS011;9626;52.552;13.436;2023-11-21T11:42:12;5.03;;;2.93;;
18983;SDS011;9626;52.552;13.436;2023-11-21T11:44:55;3.77;;;2.60;;
18983;SDS011;9626;52.552;13.436;2023-11-21T11:47:22;3.23;;;2.20;;
18983;SDS011;9626;52.552;13.436;2023-11-21T11:50:08;3.47;;;3.17;;
18983;SDS011;9626;52.552;13.436;2023-11-21T11:52:43;3.53;;;2.70;;
18983;SDS011;9626;52.552;13.436;2023-11-21T11:55:11;6.67;;;3.53;;
18983;SDS011;9626;52.552;13.436;2023-11-21T11:57:39;4.33;;;2.87;;
18983;SDS011;9626;52.552;13.436;2023-11-21T12:02:40;4.83;;;2.90;;
18983;SDS011;9626;52.552;13.436;2023-11-21T12:05:13;3.57;;;2.27;;
18983;SDS011;9626;52.552;13.436;2023-11-21T12:07:47;3.23;;;2.20;;
18983;SDS011;9626;52.552;13.436;2023-11-21T12:10:21;4.60;;;2.23;;
18983;SDS011;9626;52.552;13.436;2023-11-21T12:12:52;2.57;;;2.30;;
18983;SDS011;9626;52.552;13.436;2023-11-21T12:15:21;2.40;;;2.07;;
18983;SDS011;9626;52.552;13.436;2023-11-21T12:17:48;5.37;;;2.70;;
18983;SDS011;9626;52.552;13.436;2023-11-21T12:20:16;3.47;;;2.73;;
18983;SDS011;9626;52.552;13.436;2023-11-21T12:22:46;2.23;;;2.03;;
18983;SDS011;9626;52.552;13.436;2023-11-21T12:25:14;2.90;;;2.37;;
18983;SDS011;9626;52.552;13.436;2023-11-21T12:27:48;3.83;;;2.50;;
18983;SDS011;9626;52.552;13.436;2023-11-21T12:30:19;4.77;;;2.57;;
18983;SDS011;9626;52.552;13.436;2023-11-21T12:32:51;3.37;;;2.40;;
18983;SDS011;9626;52.552;13.436;2023-11-21T12:35:19;3.27;;;2.97;;
18983;SDS011;9626;52.552;13.436;2023-11-21T12:37:47;3.17;;;2.50;;
18983;SDS011;9626;52.552;13.436;2023-11-21T12:40:17;2.53;;;2.33;;
18983;SDS011;9626;52.552;13.436;2023-11-21T12:42:56;4.47;;;2.37;;
18983;SDS011;9626;52.552;13.436;2023-11-21T12:45:27;6.13;;;2.20;;
18983;SDS011;9626;52.552;13.436;2023-11-21T12:50:35;2.20;;;2.00;;
18983;SDS011;9626;52.552;13.436;2023-11-21T12:53:06;3.20;;;2.30;;
18983;SDS011;9626;52.552;13.436;2023-11-21T12:55:38;2.73;;;2.47;;
18983;SDS011;9626;52.552;13.436;2023-11-21T12:58:05;5.07;;;4.37;;
18983;SDS011;9626;52.552;13.436;2023-11-21T13:00:39;7.10;;;4.30;;
18983;SDS011;9626;52.552;13.436;2023-11-21T13:03:08;5.43;;;3.63;;
18983;SDS011;9626;52.552;13.436;2023-11-21T13:05:38;5.83;;;4.33;;
18983;SDS011;9626;52.552;13.436;2023-11-21T13:08:08;5.17;;;4.53;;
18983;SDS011;9626;52.552;13.436;2023-11-21T13:10:38;7.77;;;4.83;;
18983;SDS011;9626;52.552;13.436;2023-11-21T13:13:06;4.40;;;3.13;;
18983;SDS011;9626;52.552;13.436;2023-11-21T13:15:40;6.43;;;5.80;;
18983;SDS011;9626;52.552;13.436;2023-11-21T13:18:09;6.20;;;5.40;;
18983;SDS011;9626;52.552;13.436;2023-11-21T13:20:36;22.80;;;18.77;;
18983;SDS011;9626;52.552;13.436;2023-11-21T13:23:07;40.77;;;25.53;;
18983;SDS011;9626;52.552;13.436;2023-11-21T13:25:34;50.33;;;34.43;;
18983;SDS011;9626;52.552;13.436;2023-11-21T13:28:00;73.87;;;46.03;;
18983;SDS011;9626;52.552;13.436;2023-11-21T13:30:26;75.17;;;46.33;;
18983;SDS011;9626;52.552;13.436;2023-11-21T13:33:11;39.40;;;25.10;;
18983;SDS011;9626;52.552;13.436;2023-11-21T13:35:43;17.23;;;12.80;;
18983;SDS011;9626;52.552;13.436;2023-11-21T13:38:18;7.93;;;6.70;;
18983;SDS011;9626;52.552;13.436;2023-11-21T13:40:49;9.17;;;6.83;;
18983;SDS011;9626;52.552;13.436;2023-11-21T13:43:22;9.30;;;5.70;;
18983;SDS011;9626;52.552;13.436;2023-11-21T13:45:51;6.40;;;4.63;;
18983;SDS011;9626;52.552;13.436;2023-11-21T13:48:41;6.13;;;4.67;;
18983;SDS011;9626;52.552;13.436;2023-11-21T13:51:26;6.83;;;5.47;;
18983;SDS011;9626;52.552;13.436;2023-11-21T13:54:06;6.60;;;5.63;;
18983;SDS011;9626;52.552;13.436;2023-11-21T13:56:54;6.80;;;5.00;;
18983;SDS011;9626;52.552;13.436;2023-11-21T13:59:39;8.40;;;5.67;;
18983;SDS011;9626;52.552;13.436;2023-11-21T14:02:09;8.20;;;5.27;;
18983;SDS011;9626;52.552;13.436;2023-11-21T14:04:43;7.40;;;5.60;;
18983;SDS011;9626;52.552;13.436;2023-11-21T14:07:20;9.63;;;6.93;;
18983;SDS011;9626;52.552;13.436;2023-11-21T14:10:03;10.00;;;6.90;;
18983;SDS011;9626;52.552;13.436;2023-11-21T14:12:44;9.63;;;6.90;;
18983;SDS011;9626;52.552;13.436;2023-11-21T14:15:11;13.77;;;7.80;;
18983;SDS011;9626;52.552;13.436;2023-11-21T14:17:42;11.40;;;8.10;;
18983;SDS011;9626;52.552;13.436;2023-11-21T14:20:08;11.60;;;8.80;;
18983;SDS011;9626;52.552;13.436;2023-11-21T14:22:42;15.20;;;9.27;;
18983;SDS011;9626;52.552;13.436;2023-11-21T14:25:08;14.30;;;10.00;;
18983;SDS011;9626;52.552;13.436;2023-11-21T14:27:37;13.97;;;9.97;;
18983;SDS011;9626;52.552;13.436;2023-11-21T14:30:03;15.73;;;9.93;;
18983;SDS011;9626;52.552;13.436;2023-11-21T14:32:49;12.50;;;9.27;;
18983;SDS011;9626;52.552;13.436;2023-11-21T14:35:15;13.43;;;10.03;;
18983;SDS011;9626;52.552;13.436;2023-11-21T14:37:54;17.00;;;10.67;;
18983;SDS011;9626;52.552;13.436;2023-11-21T14:40:21;18.03;;;11.83;;
18983;SDS011;9626;52.552;13.436;2023-11-21T14:42:50;16.00;;;11.47;;
18983;SDS011;9626;52.552;13.436;2023-11-21T14:45:37;17.30;;;13.83;;
18983;SDS011;9626;52.552;13.436;2023-11-21T14:48:03;16.83;;;13.87;;
18983;SDS011;9626;52.552;13.436;2023-11-21T14:50:51;18.07;;;11.97;;
18983;SDS011;9626;52.552;13.436;2023-11-21T14:53:29;17.27;;;12.90;;
18983;SDS011;9626;52.552;13.436;2023-11-21T14:56:14;21.23;;;11.40;;
18983;SDS011;9626;52.552;13.436;2023-11-21T14:58:48;17.33;;;13.37;;
18983;SDS011;9626;52.552;13.436;2023-11-21T15:01:14;15.47;;;10.50;;
18983;SDS011;9626;52.552;13.436;2023-11-21T15:03:49;15.07;;;10.23;;